sensor_id;sensor_type;location;lat;lon;timestamp;temperature;humidity
318;DHT22;146;53.448;10.228;2023-03-11T00:02:14;0.60;7.90
318;DHT22;146;53.448;10.228;2023-03-11T00:04:45;0.60;7.90
318;DHT22;146;53.448;10.228;2023-03-11T00:07:12;0.70;7.90
318;DHT22;146;53.448;10.228;2023-03-11T00:09:42;0.60;7.90
318;DHT22;146;53.448;10.228;2023-03-11T00:12:09;0.60;7.80
318;DHT22;146;53.448;10.228;2023-03-11T00:14:39;0.60;7.80
318;DHT22;146;53.448;10.228;2023-03-11T00:17:11;0.50;7.70
318;DHT22;146;53.448;10.228;2023-03-11T00:19:41;0.50;7.80
318;DHT22;146;53.448;10.228;2023-03-11T00:22:10;0.50;7.80
318;DHT22;146;53.448;10.228;2023-03-11T00:24:36;0.60;7.90
318;DHT22;146;53.448;10.228;2023-03-11T00:27:06;0.60;7.90
318;DHT22;146;53.448;10.228;2023-03-11T00:32:33;0.60;7.80
318;DHT22;146;53.448;10.228;2023-03-11T00:35:03;0.60;7.80
318;DHT22;146;53.448;10.228;2023-03-11T00:37:45;0.60;7.70
318;DHT22;146;53.448;10.228;2023-03-11T00:40:18;0.60;7.70
318;DHT22;146;53.448;10.228;2023-03-11T00:45:52;0.70;7.70
318;DHT22;146;53.448;10.228;2023-03-11T00:48:26;0.60;7.60
318;DHT22;146;53.448;10.228;2023-03-11T00:51:21;0.70;7.60
318;DHT22;146;53.448;10.228;2023-03-11T00:53:54;0.70;7.60
318;DHT22;146;53.448;10.228;2023-03-11T00:56:33;0.70;7.50
318;DHT22;146;53.448;10.228;2023-03-11T00:59:03;0.70;7.50
318;DHT22;146;53.448;10.228;2023-03-11T01:02:11;0.70;7.40
318;DHT22;146;53.448;10.228;2023-03-11T01:04:38;0.70;7.30
318;DHT22;146;53.448;10.228;2023-03-11T01:07:05;0.70;7.20
318;DHT22;146;53.448;10.228;2023-03-11T01:09:33;0.60;7.10
318;DHT22;146;53.448;10.228;2023-03-11T01:12:03;0.70;7.10
318;DHT22;146;53.448;10.228;2023-03-11T01:14:30;0.70;7.10
318;DHT22;146;53.448;10.228;2023-03-11T01:17:05;0.70;7.00
318;DHT22;146;53.448;10.228;2023-03-11T01:19:32;0.70;7.10
318;DHT22;146;53.448;10.228;2023-03-11T01:22:11;0.70;7.00
318;DHT22;146;53.448;10.228;2023-03-11T01:24:44;0.80;7.00
318;DHT22;146;53.448;10.228;2023-03-11T01:27:14;0.70;6.90
318;DHT22;146;53.448;10.228;2023-03-11T01:29:41;0.70;6.80
318;DHT22;146;53.448;10.228;2023-03-11T01:32:14;0.70;6.70
318;DHT22;146;53.448;10.228;2023-03-11T01:34:47;0.80;6.70
318;DHT22;146;53.448;10.228;2023-03-11T01:37:13;0.70;6.60
318;DHT22;146;53.448;10.228;2023-03-11T01:39:48;0.70;6.60
318;DHT22;146;53.448;10.228;2023-03-11T01:42:14;0.70;6.50
318;DHT22;146;53.448;10.228;2023-03-11T01:44:44;0.70;6.50
318;DHT22;146;53.448;10.228;2023-03-11T01:47:35;0.70;6.50
318;DHT22;146;53.448;10.228;2023-03-11T01:50:06;0.70;6.50
318;DHT22;146;53.448;10.228;2023-03-11T01:52:43;0.70;6.40
318;DHT22;146;53.448;10.228;2023-03-11T01:55:16;0.70;6.50
318;DHT22;146;53.448;10.228;2023-03-11T01:57:48;0.70;6.40
318;DHT22;146;53.448;10.228;2023-03-11T02:00:19;0.70;6.30
318;DHT22;146;53.448;10.228;2023-03-11T02:02:49;0.70;6.40
318;DHT22;146;53.448;10.228;2023-03-11T02:05:20;0.70;6.40
318;DHT22;146;53.448;10.228;2023-03-11T02:07:48;0.70;6.50
318;DHT22;146;53.448;10.228;2023-03-11T02:10:17;0.70;6.50
318;DHT22;146;53.448;10.228;2023-03-11T02:12:44;0.70;6.30
318;DHT22;146;53.448;10.228;2023-03-11T02:15:27;0.80;6.20
318;DHT22;146;53.448;10.228;2023-03-11T02:17:55;0.70;6.00
318;DHT22;146;53.448;10.228;2023-03-11T02:20:31;0.70;5.90
318;DHT22;146;53.448;10.228;2023-03-11T02:23:04;0.70;6.00
318;DHT22;146;53.448;10.228;2023-03-11T02:25:39;0.70;6.10
318;DHT22;146;53.448;10.228;2023-03-11T02:28:12;0.70;5.90
318;DHT22;146;53.448;10.228;2023-03-11T02:30:46;0.70;5.80
318;DHT22;146;53.448;10.228;2023-03-11T02:33:17;0.70;5.60
318;DHT22;146;53.448;10.228;2023-03-11T02:35:44;0.60;5.60
318;DHT22;146;53.448;10.228;2023-03-11T02:38:11;0.70;5.50
318;DHT22;146;53.448;10.228;2023-03-11T02:40:54;0.80;5.40
318;DHT22;146;53.448;10.228;2023-03-11T02:43:39;0.80;5.20
318;DHT22;146;53.448;10.228;2023-03-11T02:46:10;0.80;4.90
318;DHT22;146;53.448;10.228;2023-03-11T02:48:48;0.80;4.80
318;DHT22;146;53.448;10.228;2023-03-11T02:51:18;0.80;4.50
318;DHT22;146;53.448;10.228;2023-03-11T02:54:06;0.70;4.30
318;DHT22;146;53.448;10.228;2023-03-11T02:56:33;0.80;4.20
318;DHT22;146;53.448;10.228;2023-03-11T02:59:04;0.80;4.20
318;DHT22;146;53.448;10.228;2023-03-11T03:01:31;0.80;3.90
318;DHT22;146;53.448;10.228;2023-03-11T03:04:10;0.80;3.60
318;DHT22;146;53.448;10.228;2023-03-11T03:06:45;0.70;3.60
318;DHT22;146;53.448;10.228;2023-03-11T03:09:12;0.70;3.50
318;DHT22;146;53.448;10.228;2023-03-11T03:11:39;0.70;3.50
318;DHT22;146;53.448;10.228;2023-03-11T03:14:07;0.60;3.30
318;DHT22;146;53.448;10.228;2023-03-11T03:16:37;0.60;3.30
318;DHT22;146;53.448;10.228;2023-03-11T03:19:22;0.60;3.30
318;DHT22;146;53.448;10.228;2023-03-11T03:22:11;0.60;3.50
318;DHT22;146;53.448;10.228;2023-03-11T03:24:40;0.60;3.50
318;DHT22;146;53.448;10.228;2023-03-11T03:27:13;0.60;3.30
318;DHT22;146;53.448;10.228;2023-03-11T03:29:45;0.60;3.40
318;DHT22;146;53.448;10.228;2023-03-11T03:32:11;0.60;3.30
318;DHT22;146;53.448;10.228;2023-03-11T03:34:44;0.70;3.40
318;DHT22;146;53.448;10.228;2023-03-11T03:37:11;0.70;3.40
318;DHT22;146;53.448;10.228;2023-03-11T03:39:38;0.60;3.20
318;DHT22;146;53.448;10.228;2023-03-11T03:42:08;0.60;2.90
318;DHT22;146;53.448;10.228;2023-03-11T03:44:35;0.60;2.90
318;DHT22;146;53.448;10.228;2023-03-11T03:47:06;0.60;2.90
318;DHT22;146;53.448;10.228;2023-03-11T03:49:39;0.60;2.90
318;DHT22;146;53.448;10.228;2023-03-11T03:52:12;0.60;2.80
318;DHT22;146;53.448;10.228;2023-03-11T03:54:42;0.50;2.50
318;DHT22;146;53.448;10.228;2023-03-11T03:57:12;0.50;2.40
318;DHT22;146;53.448;10.228;2023-03-11T03:59:38;0.50;2.20
318;DHT22;146;53.448;10.228;2023-03-11T04:02:07;0.50;2.20
318;DHT22;146;53.448;10.228;2023-03-11T04:04:33;0.50;2.10
318;DHT22;146;53.448;10.228;2023-03-11T04:07:09;0.40;2.00
318;DHT22;146;53.448;10.228;2023-03-11T04:09:45;0.40;1.80
318;DHT22;146;53.448;10.228;2023-03-11T04:12:20;0.40;1.80
318;DHT22;146;53.448;10.228;2023-03-11T04:14:47;0.40;1.90
318;DHT22;146;53.448;10.228;2023-03-11T04:17:16;0.40;1.90
318;DHT22;146;53.448;10.228;2023-03-11T04:19:49;0.50;2.00
318;DHT22;146;53.448;10.228;2023-03-11T04:22:18;0.50;1.90
318;DHT22;146;53.448;10.228;2023-03-11T04:24:47;0.50;1.90
318;DHT22;146;53.448;10.228;2023-03-11T04:27:23;0.50;1.80
318;DHT22;146;53.448;10.228;2023-03-11T04:29:53;0.50;1.50
318;DHT22;146;53.448;10.228;2023-03-11T04:32:26;0.50;1.30
318;DHT22;146;53.448;10.228;2023-03-11T04:34:56;0.50;1.00
318;DHT22;146;53.448;10.228;2023-03-11T04:37:30;0.40;1.10
318;DHT22;146;53.448;10.228;2023-03-11T04:40:00;0.40;1.20
318;DHT22;146;53.448;10.228;2023-03-11T04:42:34;0.40;1.20
318;DHT22;146;53.448;10.228;2023-03-11T04:45:01;0.50;1.20
318;DHT22;146;53.448;10.228;2023-03-11T04:47:37;0.50;1.30
318;DHT22;146;53.448;10.228;2023-03-11T04:50:04;0.40;1.20
318;DHT22;146;53.448;10.228;2023-03-11T04:52:31;0.50;1.30
318;DHT22;146;53.448;10.228;2023-03-11T04:54:58;0.50;1.50
318;DHT22;146;53.448;10.228;2023-03-11T04:57:28;0.50;1.20
318;DHT22;146;53.448;10.228;2023-03-11T05:00:00;0.50;1.00
318;DHT22;146;53.448;10.228;2023-03-11T05:02:39;0.40;1.00
318;DHT22;146;53.448;10.228;2023-03-11T05:05:12;0.50;1.00
318;DHT22;146;53.448;10.228;2023-03-11T05:07:39;0.40;1.00
318;DHT22;146;53.448;10.228;2023-03-11T05:10:14;0.40;1.00
318;DHT22;146;53.448;10.228;2023-03-11T05:12:46;0.30;1.00
318;DHT22;146;53.448;10.228;2023-03-11T05:15:16;0.30;1.00
318;DHT22;146;53.448;10.228;2023-03-11T05:17:56;0.30;1.00
318;DHT22;146;53.448;10.228;2023-03-11T05:20:26;0.20;1.00
318;DHT22;146;53.448;10.228;2023-03-11T05:22:59;0.20;1.00
318;DHT22;146;53.448;10.228;2023-03-11T05:25:34;0.10;1.00
318;DHT22;146;53.448;10.228;2023-03-11T05:28:01;0.10;1.00
318;DHT22;146;53.448;10.228;2023-03-11T05:30:31;0.00;1.00
318;DHT22;146;53.448;10.228;2023-03-11T05:33:02;0.10;1.00
318;DHT22;146;53.448;10.228;2023-03-11T05:35:29;0.10;1.00
318;DHT22;146;53.448;10.228;2023-03-11T05:37:56;0.00;1.00
318;DHT22;146;53.448;10.228;2023-03-11T05:40:26;0.00;1.00
318;DHT22;146;53.448;10.228;2023-03-11T05:42:55;-0.10;1.00
318;DHT22;146;53.448;10.228;2023-03-11T05:45:23;-0.10;1.00
318;DHT22;146;53.448;10.228;2023-03-11T05:47:56;-0.20;1.00
318;DHT22;146;53.448;10.228;2023-03-11T05:50:47;-0.20;1.00
318;DHT22;146;53.448;10.228;2023-03-11T05:53:22;-0.20;1.00
318;DHT22;146;53.448;10.228;2023-03-11T05:56:00;-0.20;1.00
318;DHT22;146;53.448;10.228;2023-03-11T05:58:28;-0.10;1.00
318;DHT22;146;53.448;10.228;2023-03-11T06:00:57;0.00;1.00
318;DHT22;146;53.448;10.228;2023-03-11T06:03:33;0.10;1.40
318;DHT22;146;53.448;10.228;2023-03-11T06:06:15;0.10;1.30
318;DHT22;146;53.448;10.228;2023-03-11T06:08:42;0.10;1.40
318;DHT22;146;53.448;10.228;2023-03-11T06:11:16;0.20;1.50
318;DHT22;146;53.448;10.228;2023-03-11T06:13:43;0.20;1.50
318;DHT22;146;53.448;10.228;2023-03-11T06:16:10;0.30;1.50
318;DHT22;146;53.448;10.228;2023-03-11T06:18:37;0.30;1.30
318;DHT22;146;53.448;10.228;2023-03-11T06:21:08;0.40;1.10
318;DHT22;146;53.448;10.228;2023-03-11T06:23:53;0.30;1.00
318;DHT22;146;53.448;10.228;2023-03-11T06:26:22;0.40;1.00
318;DHT22;146;53.448;10.228;2023-03-11T06:28:50;0.30;1.00
318;DHT22;146;53.448;10.228;2023-03-11T06:31:19;0.30;1.00
318;DHT22;146;53.448;10.228;2023-03-11T06:33:53;0.30;1.00
318;DHT22;146;53.448;10.228;2023-03-11T06:36:30;0.20;1.00
318;DHT22;146;53.448;10.228;2023-03-11T06:39:05;0.20;1.00
318;DHT22;146;53.448;10.228;2023-03-11T06:41:32;0.20;1.00
318;DHT22;146;53.448;10.228;2023-03-11T06:43:59;0.10;1.00
318;DHT22;146;53.448;10.228;2023-03-11T06:46:29;0.00;1.00
318;DHT22;146;53.448;10.228;2023-03-11T06:49:02;0.10;1.00
318;DHT22;146;53.448;10.228;2023-03-11T06:51:29;0.20;1.00
318;DHT22;146;53.448;10.228;2023-03-11T06:54:14;0.20;1.00
318;DHT22;146;53.448;10.228;2023-03-11T06:56:41;0.20;1.00
318;DHT22;146;53.448;10.228;2023-03-11T06:59:11;0.20;1.00
318;DHT22;146;53.448;10.228;2023-03-11T07:01:42;0.20;1.00
318;DHT22;146;53.448;10.228;2023-03-11T07:04:15;0.20;1.00
318;DHT22;146;53.448;10.228;2023-03-11T07:06:44;0.20;1.00
318;DHT22;146;53.448;10.228;2023-03-11T07:09:20;0.20;1.00
318;DHT22;146;53.448;10.228;2023-03-11T07:11:52;0.10;1.00
318;DHT22;146;53.448;10.228;2023-03-11T07:14:23;0.10;1.00
318;DHT22;146;53.448;10.228;2023-03-11T07:16:50;0.10;1.00
318;DHT22;146;53.448;10.228;2023-03-11T07:19:19;0.10;1.00
318;DHT22;146;53.448;10.228;2023-03-11T07:21:46;0.10;1.00
318;DHT22;146;53.448;10.228;2023-03-11T07:24:14;0.10;1.00
318;DHT22;146;53.448;10.228;2023-03-11T07:26:41;0.10;1.00
318;DHT22;146;53.448;10.228;2023-03-11T07:29:11;0.20;1.00
318;DHT22;146;53.448;10.228;2023-03-11T07:31:45;0.20;1.00
318;DHT22;146;53.448;10.228;2023-03-11T07:34:12;0.30;1.00
318;DHT22;146;53.448;10.228;2023-03-11T07:36:44;0.30;1.00
318;DHT22;146;53.448;10.228;2023-03-11T07:39:13;0.30;1.00
318;DHT22;146;53.448;10.228;2023-03-11T07:41:48;0.30;1.00
318;DHT22;146;53.448;10.228;2023-03-11T07:44:16;0.30;1.00
318;DHT22;146;53.448;10.228;2023-03-11T07:46:43;0.40;1.00
318;DHT22;146;53.448;10.228;2023-03-11T07:49:13;0.30;1.00
318;DHT22;146;53.448;10.228;2023-03-11T07:51:43;0.40;1.00
318;DHT22;146;53.448;10.228;2023-03-11T07:54:16;0.40;1.00
318;DHT22;146;53.448;10.228;2023-03-11T07:56:47;0.30;1.00
318;DHT22;146;53.448;10.228;2023-03-11T07:59:14;0.40;1.00
318;DHT22;146;53.448;10.228;2023-03-11T08:01:44;0.40;1.00
318;DHT22;146;53.448;10.228;2023-03-11T08:04:30;0.40;1.00
318;DHT22;146;53.448;10.228;2023-03-11T08:07:06;0.50;1.00
318;DHT22;146;53.448;10.228;2023-03-11T08:09:45;0.60;1.00
318;DHT22;146;53.448;10.228;2023-03-11T08:12:16;0.60;1.00
318;DHT22;146;53.448;10.228;2023-03-11T08:14:43;0.60;1.00
318;DHT22;146;53.448;10.228;2023-03-11T08:17:22;0.70;1.00
318;DHT22;146;53.448;10.228;2023-03-11T08:19:49;0.70;1.00
318;DHT22;146;53.448;10.228;2023-03-11T08:22:18;0.70;1.00
318;DHT22;146;53.448;10.228;2023-03-11T08:24:51;0.80;1.00
318;DHT22;146;53.448;10.228;2023-03-11T08:27:19;0.80;1.00
318;DHT22;146;53.448;10.228;2023-03-11T08:29:46;0.80;1.00
318;DHT22;146;53.448;10.228;2023-03-11T08:32:13;0.80;1.00
318;DHT22;146;53.448;10.228;2023-03-11T08:34:40;0.90;1.00
318;DHT22;146;53.448;10.228;2023-03-11T08:37:09;0.80;1.00
318;DHT22;146;53.448;10.228;2023-03-11T08:39:39;1.00;1.00
318;DHT22;146;53.448;10.228;2023-03-11T08:42:09;1.00;1.00
318;DHT22;146;53.448;10.228;2023-03-11T08:44:37;1.00;1.00
318;DHT22;146;53.448;10.228;2023-03-11T08:47:04;1.00;1.00
318;DHT22;146;53.448;10.228;2023-03-11T08:49:33;1.00;1.00
318;DHT22;146;53.448;10.228;2023-03-11T08:52:01;1.20;1.00
318;DHT22;146;53.448;10.228;2023-03-11T08:54:39;1.20;1.00
318;DHT22;146;53.448;10.228;2023-03-11T08:57:07;1.20;1.00
318;DHT22;146;53.448;10.228;2023-03-11T08:59:34;1.20;1.00
318;DHT22;146;53.448;10.228;2023-03-11T09:02:08;1.30;1.00
318;DHT22;146;53.448;10.228;2023-03-11T09:04:35;1.30;1.00
318;DHT22;146;53.448;10.228;2023-03-11T09:07:02;1.30;1.00
318;DHT22;146;53.448;10.228;2023-03-11T09:09:28;1.40;1.00
318;DHT22;146;53.448;10.228;2023-03-11T09:11:55;1.40;1.00
318;DHT22;146;53.448;10.228;2023-03-11T09:14:22;1.40;1.00
318;DHT22;146;53.448;10.228;2023-03-11T09:16:49;1.50;1.00
318;DHT22;146;53.448;10.228;2023-03-11T09:19:17;1.50;1.00
318;DHT22;146;53.448;10.228;2023-03-11T09:21:46;1.50;1.00
318;DHT22;146;53.448;10.228;2023-03-11T09:24:16;1.50;1.00
318;DHT22;146;53.448;10.228;2023-03-11T09:26:43;1.50;1.00
318;DHT22;146;53.448;10.228;2023-03-11T09:29:10;1.50;1.00
318;DHT22;146;53.448;10.228;2023-03-11T09:31:36;1.50;1.00
318;DHT22;146;53.448;10.228;2023-03-11T09:34:04;1.60;1.00
318;DHT22;146;53.448;10.228;2023-03-11T09:36:32;1.70;1.00
318;DHT22;146;53.448;10.228;2023-03-11T09:39:00;1.70;1.00
318;DHT22;146;53.448;10.228;2023-03-11T09:41:33;1.80;1.00
318;DHT22;146;53.448;10.228;2023-03-11T09:44:11;1.70;1.00
318;DHT22;146;53.448;10.228;2023-03-11T09:46:56;1.70;1.00
318;DHT22;146;53.448;10.228;2023-03-11T09:49:32;1.80;1.00
318;DHT22;146;53.448;10.228;2023-03-11T09:52:08;1.90;1.00
318;DHT22;146;53.448;10.228;2023-03-11T09:54:37;2.00;1.00
318;DHT22;146;53.448;10.228;2023-03-11T09:57:05;2.00;1.00
318;DHT22;146;53.448;10.228;2023-03-11T09:59:36;2.00;1.00
318;DHT22;146;53.448;10.228;2023-03-11T10:02:13;2.10;1.00
318;DHT22;146;53.448;10.228;2023-03-11T10:04:44;2.10;1.00
318;DHT22;146;53.448;10.228;2023-03-11T10:07:19;2.10;1.00
318;DHT22;146;53.448;10.228;2023-03-11T10:09:49;2.20;1.00
318;DHT22;146;53.448;10.228;2023-03-11T10:12:24;2.20;1.00
318;DHT22;146;53.448;10.228;2023-03-11T10:15:16;2.30;1.00
318;DHT22;146;53.448;10.228;2023-03-11T10:17:56;2.30;1.00
318;DHT22;146;53.448;10.228;2023-03-11T10:20:27;2.40;1.00
318;DHT22;146;53.448;10.228;2023-03-11T10:23:07;2.30;1.00
318;DHT22;146;53.448;10.228;2023-03-11T10:25:42;2.40;1.00
318;DHT22;146;53.448;10.228;2023-03-11T10:28:14;2.50;1.00
318;DHT22;146;53.448;10.228;2023-03-11T10:30:47;2.50;1.00
318;DHT22;146;53.448;10.228;2023-03-11T10:33:30;2.40;1.00
318;DHT22;146;53.448;10.228;2023-03-11T10:36:06;2.40;1.00
318;DHT22;146;53.448;10.228;2023-03-11T10:38:48;2.40;1.00
318;DHT22;146;53.448;10.228;2023-03-11T10:41:27;2.40;1.00
318;DHT22;146;53.448;10.228;2023-03-11T10:44:00;2.40;1.00
318;DHT22;146;53.448;10.228;2023-03-11T10:46:36;2.40;1.00
318;DHT22;146;53.448;10.228;2023-03-11T10:49:11;2.50;1.00
318;DHT22;146;53.448;10.228;2023-03-11T10:51:39;2.60;1.00
318;DHT22;146;53.448;10.228;2023-03-11T10:54:21;2.50;1.00
318;DHT22;146;53.448;10.228;2023-03-11T10:57:18;2.60;1.00
318;DHT22;146;53.448;10.228;2023-03-11T10:59:46;2.70;1.00
318;DHT22;146;53.448;10.228;2023-03-11T11:02:48;2.70;1.00
318;DHT22;146;53.448;10.228;2023-03-11T11:05:30;2.70;1.00
318;DHT22;146;53.448;10.228;2023-03-11T11:08:32;2.70;1.00
318;DHT22;146;53.448;10.228;2023-03-11T11:11:02;2.80;1.00
318;DHT22;146;53.448;10.228;2023-03-11T11:14:02;2.80;1.00
318;DHT22;146;53.448;10.228;2023-03-11T11:16:54;2.70;1.00
318;DHT22;146;53.448;10.228;2023-03-11T11:19:24;2.80;1.00
318;DHT22;146;53.448;10.228;2023-03-11T11:22:03;2.90;1.00
318;DHT22;146;53.448;10.228;2023-03-11T11:24:31;2.90;1.00
318;DHT22;146;53.448;10.228;2023-03-11T11:27:14;2.90;1.00
318;DHT22;146;53.448;10.228;2023-03-11T11:30:11;3.00;1.00
318;DHT22;146;53.448;10.228;2023-03-11T11:32:45;3.10;1.00
318;DHT22;146;53.448;10.228;2023-03-11T11:35:13;3.10;1.00
318;DHT22;146;53.448;10.228;2023-03-11T11:41:04;3.10;1.00
318;DHT22;146;53.448;10.228;2023-03-11T11:43:46;3.20;1.00
318;DHT22;146;53.448;10.228;2023-03-11T11:46:20;3.10;1.00
318;DHT22;146;53.448;10.228;2023-03-11T11:49:06;3.20;1.00
318;DHT22;146;53.448;10.228;2023-03-11T11:51:40;3.20;1.00
318;DHT22;146;53.448;10.228;2023-03-11T11:54:14;3.30;1.00
318;DHT22;146;53.448;10.228;2023-03-11T11:57:11;3.30;1.00
318;DHT22;146;53.448;10.228;2023-03-11T11:59:42;3.30;1.00
318;DHT22;146;53.448;10.228;2023-03-11T12:02:30;3.40;1.00
318;DHT22;146;53.448;10.228;2023-03-11T12:05:06;3.50;1.00
318;DHT22;146;53.448;10.228;2023-03-11T12:07:46;3.60;1.00
318;DHT22;146;53.448;10.228;2023-03-11T12:10:26;3.60;1.00
318;DHT22;146;53.448;10.228;2023-03-11T12:16:22;3.70;1.00
318;DHT22;146;53.448;10.228;2023-03-11T12:18:55;3.80;1.00
318;DHT22;146;53.448;10.228;2023-03-11T12:21:34;3.80;1.00
318;DHT22;146;53.448;10.228;2023-03-11T12:24:29;3.90;1.00
318;DHT22;146;53.448;10.228;2023-03-11T12:27:05;3.90;1.00
318;DHT22;146;53.448;10.228;2023-03-11T12:29:37;3.90;1.00
318;DHT22;146;53.448;10.228;2023-03-11T12:32:09;4.00;1.00
318;DHT22;146;53.448;10.228;2023-03-11T12:35:02;4.00;1.00
318;DHT22;146;53.448;10.228;2023-03-11T12:37:54;4.20;1.00
318;DHT22;146;53.448;10.228;2023-03-11T12:44:11;4.40;1.00
318;DHT22;146;53.448;10.228;2023-03-11T12:47:32;4.30;1.00
318;DHT22;146;53.448;10.228;2023-03-11T12:50:38;4.40;1.00
318;DHT22;146;53.448;10.228;2023-03-11T12:53:07;4.50;1.00
318;DHT22;146;53.448;10.228;2023-03-11T12:56:05;4.40;1.00
318;DHT22;146;53.448;10.228;2023-03-11T12:59:08;4.60;1.00
318;DHT22;146;53.448;10.228;2023-03-11T13:02:02;4.50;1.00
318;DHT22;146;53.448;10.228;2023-03-11T13:04:47;4.60;1.00
318;DHT22;146;53.448;10.228;2023-03-11T13:07:52;4.70;1.00
318;DHT22;146;53.448;10.228;2023-03-11T13:10:38;4.70;1.00
318;DHT22;146;53.448;10.228;2023-03-11T13:13:38;4.60;1.00
318;DHT22;146;53.448;10.228;2023-03-11T13:16:37;4.50;1.00
318;DHT22;146;53.448;10.228;2023-03-11T13:19:36;4.50;1.00
318;DHT22;146;53.448;10.228;2023-03-11T13:25:37;4.50;1.00
318;DHT22;146;53.448;10.228;2023-03-11T13:31:08;4.60;1.00
318;DHT22;146;53.448;10.228;2023-03-11T13:33:47;4.70;1.00
318;DHT22;146;53.448;10.228;2023-03-11T13:39:46;4.80;1.00
318;DHT22;146;53.448;10.228;2023-03-11T13:42:27;5.00;1.00
318;DHT22;146;53.448;10.228;2023-03-11T13:44:58;5.20;1.00
318;DHT22;146;53.448;10.228;2023-03-11T13:47:26;5.30;1.00
318;DHT22;146;53.448;10.228;2023-03-11T13:49:59;5.30;1.00
318;DHT22;146;53.448;10.228;2023-03-11T13:52:31;5.10;1.00
318;DHT22;146;53.448;10.228;2023-03-11T13:55:14;5.00;1.00
318;DHT22;146;53.448;10.228;2023-03-11T13:57:49;4.90;1.00
318;DHT22;146;53.448;10.228;2023-03-11T14:00:26;4.90;1.00
318;DHT22;146;53.448;10.228;2023-03-11T14:02:58;5.00;1.00
318;DHT22;146;53.448;10.228;2023-03-11T14:05:30;5.20;1.00
318;DHT22;146;53.448;10.228;2023-03-11T14:08:11;5.30;1.00
318;DHT22;146;53.448;10.228;2023-03-11T14:10:39;5.10;1.00
318;DHT22;146;53.448;10.228;2023-03-11T14:13:18;5.20;1.00
318;DHT22;146;53.448;10.228;2023-03-11T14:15:51;5.20;1.00
318;DHT22;146;53.448;10.228;2023-03-11T14:18:39;5.30;1.00
318;DHT22;146;53.448;10.228;2023-03-11T14:21:11;5.30;1.00
318;DHT22;146;53.448;10.228;2023-03-11T14:23:41;5.40;1.00
318;DHT22;146;53.448;10.228;2023-03-11T14:26:15;5.40;1.00
318;DHT22;146;53.448;10.228;2023-03-11T14:28:47;5.40;1.00
318;DHT22;146;53.448;10.228;2023-03-11T14:31:24;5.20;1.00
318;DHT22;146;53.448;10.228;2023-03-11T14:34:01;5.10;1.00
318;DHT22;146;53.448;10.228;2023-03-11T14:36:44;5.20;1.00
318;DHT22;146;53.448;10.228;2023-03-11T14:39:30;5.20;1.00
318;DHT22;146;53.448;10.228;2023-03-11T14:42:20;5.10;1.00
318;DHT22;146;53.448;10.228;2023-03-11T14:44:50;5.00;1.00
318;DHT22;146;53.448;10.228;2023-03-11T14:47:35;4.90;1.00
318;DHT22;146;53.448;10.228;2023-03-11T14:50:21;4.90;1.00
318;DHT22;146;53.448;10.228;2023-03-11T14:53:04;4.70;1.00
318;DHT22;146;53.448;10.228;2023-03-11T14:55:38;4.70;1.00
318;DHT22;146;53.448;10.228;2023-03-11T14:58:13;4.70;1.00
318;DHT22;146;53.448;10.228;2023-03-11T15:00:46;4.70;1.00
318;DHT22;146;53.448;10.228;2023-03-11T15:03:25;4.70;1.00
318;DHT22;146;53.448;10.228;2023-03-11T15:06:02;4.70;1.00
318;DHT22;146;53.448;10.228;2023-03-11T15:08:31;4.60;1.00
318;DHT22;146;53.448;10.228;2023-03-11T15:11:02;4.70;1.00
318;DHT22;146;53.448;10.228;2023-03-11T15:13:46;4.80;1.00
318;DHT22;146;53.448;10.228;2023-03-11T15:16:29;4.90;1.00
318;DHT22;146;53.448;10.228;2023-03-11T15:19:28;5.10;1.00
318;DHT22;146;53.448;10.228;2023-03-11T15:22:19;5.20;1.00
318;DHT22;146;53.448;10.228;2023-03-11T15:24:52;5.10;1.00
318;DHT22;146;53.448;10.228;2023-03-11T15:27:30;5.00;1.00
318;DHT22;146;53.448;10.228;2023-03-11T15:30:02;4.90;1.00
318;DHT22;146;53.448;10.228;2023-03-11T15:32:39;4.80;1.00
318;DHT22;146;53.448;10.228;2023-03-11T15:35:15;4.70;1.00
318;DHT22;146;53.448;10.228;2023-03-11T15:37:46;4.60;1.00
318;DHT22;146;53.448;10.228;2023-03-11T15:40:20;4.50;1.00
318;DHT22;146;53.448;10.228;2023-03-11T15:43:02;4.50;1.00
318;DHT22;146;53.448;10.228;2023-03-11T15:45:36;4.50;1.00
318;DHT22;146;53.448;10.228;2023-03-11T15:48:10;4.70;1.00
318;DHT22;146;53.448;10.228;2023-03-11T15:50:47;4.60;1.00
318;DHT22;146;53.448;10.228;2023-03-11T15:53:18;4.60;1.00
318;DHT22;146;53.448;10.228;2023-03-11T15:55:45;4.50;1.00
318;DHT22;146;53.448;10.228;2023-03-11T15:58:14;4.60;1.00
318;DHT22;146;53.448;10.228;2023-03-11T16:00:48;4.60;1.00
318;DHT22;146;53.448;10.228;2023-03-11T16:03:15;4.70;1.00
318;DHT22;146;53.448;10.228;2023-03-11T16:05:46;4.70;1.00
318;DHT22;146;53.448;10.228;2023-03-11T16:08:16;4.70;1.00
318;DHT22;146;53.448;10.228;2023-03-11T16:10:43;4.60;1.00
318;DHT22;146;53.448;10.228;2023-03-11T16:13:14;4.60;1.00
318;DHT22;146;53.448;10.228;2023-03-11T16:15:41;4.50;1.00
318;DHT22;146;53.448;10.228;2023-03-11T16:18:12;4.50;1.00
318;DHT22;146;53.448;10.228;2023-03-11T16:20:41;4.60;1.00
318;DHT22;146;53.448;10.228;2023-03-11T16:23:17;4.50;1.00
318;DHT22;146;53.448;10.228;2023-03-11T16:25:46;4.40;1.00
318;DHT22;146;53.448;10.228;2023-03-11T16:28:14;4.30;1.00
318;DHT22;146;53.448;10.228;2023-03-11T16:30:44;4.20;1.00
318;DHT22;146;53.448;10.228;2023-03-11T16:33:15;3.90;1.00
318;DHT22;146;53.448;10.228;2023-03-11T16:35:42;3.50;1.00
318;DHT22;146;53.448;10.228;2023-03-11T16:38:13;3.30;1.00
318;DHT22;146;53.448;10.228;2023-03-11T16:40:43;3.20;1.00
318;DHT22;146;53.448;10.228;2023-03-11T16:43:13;3.00;1.00
318;DHT22;146;53.448;10.228;2023-03-11T16:45:40;2.90;1.00
318;DHT22;146;53.448;10.228;2023-03-11T16:48:07;2.70;1.00
318;DHT22;146;53.448;10.228;2023-03-11T16:50:35;2.60;1.00
318;DHT22;146;53.448;10.228;2023-03-11T16:53:09;2.60;1.00
318;DHT22;146;53.448;10.228;2023-03-11T16:55:38;2.60;1.00
318;DHT22;146;53.448;10.228;2023-03-11T16:58:05;2.60;1.00
318;DHT22;146;53.448;10.228;2023-03-11T17:00:35;2.50;1.00
318;DHT22;146;53.448;10.228;2023-03-11T17:03:12;2.50;1.00
318;DHT22;146;53.448;10.228;2023-03-11T17:05:40;2.40;1.00
318;DHT22;146;53.448;10.228;2023-03-11T17:08:15;2.30;1.00
318;DHT22;146;53.448;10.228;2023-03-11T17:10:46;2.30;1.00
318;DHT22;146;53.448;10.228;2023-03-11T17:13:14;2.20;1.00
318;DHT22;146;53.448;10.228;2023-03-11T17:15:44;2.20;1.00
318;DHT22;146;53.448;10.228;2023-03-11T17:18:14;2.10;1.00
318;DHT22;146;53.448;10.228;2023-03-11T17:20:42;2.10;1.00
318;DHT22;146;53.448;10.228;2023-03-11T17:23:11;2.10;1.00
318;DHT22;146;53.448;10.228;2023-03-11T17:25:46;2.10;1.00
318;DHT22;146;53.448;10.228;2023-03-11T17:28:25;2.00;1.00
318;DHT22;146;53.448;10.228;2023-03-11T17:31:17;2.10;1.00
318;DHT22;146;53.448;10.228;2023-03-11T17:33:45;2.00;1.00
318;DHT22;146;53.448;10.228;2023-03-11T17:36:17;2.00;1.00
318;DHT22;146;53.448;10.228;2023-03-11T17:38:53;1.90;1.00
318;DHT22;146;53.448;10.228;2023-03-11T17:41:20;1.90;1.00
318;DHT22;146;53.448;10.228;2023-03-11T17:43:51;1.90;1.00
318;DHT22;146;53.448;10.228;2023-03-11T17:46:20;1.90;1.00
318;DHT22;146;53.448;10.228;2023-03-11T17:48:50;1.90;1.00
318;DHT22;146;53.448;10.228;2023-03-11T17:51:20;1.90;1.00
318;DHT22;146;53.448;10.228;2023-03-11T17:53:48;1.80;1.00
318;DHT22;146;53.448;10.228;2023-03-11T17:56:17;1.80;1.00
318;DHT22;146;53.448;10.228;2023-03-11T17:58:45;1.70;1.00
318;DHT22;146;53.448;10.228;2023-03-11T18:01:16;1.60;1.10
318;DHT22;146;53.448;10.228;2023-03-11T18:03:46;1.60;1.40